Time;durP1;ratioP1;P1;durP2;ratioP2;P2;SDS_P1;SDS_P2;PMS_P1;PMS_P2;Temp;Humidity;BMP_temperature;BMP_pressure;BME280_temperature;BME280_humidity;BME280_pressure;Samples;Min_cycle;Max_cycle;Signal;HPM_P1;HPM_P2
2024/03/21 00:00:30;;;;;;;11.85;9.73;;;11.80;99.90;;;;;;5037780;28;20151;-62
2024/03/21 00:02:57;;;;;;;15.02;9.45;;;11.90;99.90;;;;;;5043078;28;20051;-61
2024/03/21 00:05:23;;;;;;;19.20;10.82;;;11.80;99.90;;;;;;5043777;28;20033;-62
2024/03/21 00:07:49;;;;;;;11.77;9.77;;;11.90;99.90;;;;;;5040524;28;20036;-62
2024/03/21 00:10:21;;;;;;;13.80;9.48;;;11.70;99.90;;;;;;5041642;28;20091;-62
2024/03/21 00:12:47;;;;;;;13.57;9.57;;;11.70;99.90;;;;;;5045908;28;20112;-62
2024/03/21 00:15:13;;;;;;;14.35;9.25;;;11.70;99.90;;;;;;5039315;28;20124;-62
2024/03/21 00:17:39;;;;;;;13.68;9.48;;;11.80;99.90;;;;;;5042410;28;20453;-62
2024/03/21 00:20:15;;;;;;;13.75;8.90;;;11.70;99.90;;;;;;5035832;28;20044;-62
2024/03/21 00:22:42;;;;;;;13.00;9.77;;;11.60;99.90;;;;;;5046811;28;20044;-62
2024/03/21 00:25:09;;;;;;;12.93;9.40;;;11.80;99.90;;;;;;5039710;28;20048;-62
2024/03/21 00:27:36;;;;;;;11.40;8.45;;;11.80;99.90;;;;;;5055615;28;20032;-62
2024/03/21 00:30:06;;;;;;;13.13;9.13;;;11.70;99.90;;;;;;5040864;28;20262;-62
2024/03/21 00:32:32;;;;;;;13.15;8.93;;;11.60;99.90;;;;;;5045139;28;20141;-61
2024/03/21 00:34:58;;;;;;;14.65;9.00;;;11.60;99.90;;;;;;5041552;28;20037;-62
2024/03/21 00:37:27;;;;;;;14.02;9.15;;;11.60;99.90;;;;;;5042022;28;20041;-61
2024/03/21 00:39:56;;;;;;;17.90;9.00;;;11.60;99.90;;;;;;5043112;28;20508;-61
2024/03/21 00:42:22;;;;;;;14.43;9.77;;;11.70;99.90;;;;;;5043243;28;20363;-62
2024/03/21 00:44:48;;;;;;;14.95;9.00;;;11.60;99.90;;;;;;5048559;28;20037;-62
2024/03/21 00:47:14;;;;;;;18.10;10.15;;;11.70;99.90;;;;;;5042084;28;20446;-62
2024/03/21 00:49:39;;;;;;;12.70;9.50;;;11.70;99.90;;;;;;5043153;28;20423;-62
2024/03/21 00:52:05;;;;;;;13.13;9.70;;;11.60;99.90;;;;;;5050312;28;20071;-62
2024/03/21 00:54:32;;;;;;;16.17;10.82;;;11.50;99.90;;;;;;5037781;28;20140;-62
2024/03/21 00:56:57;;;;;;;18.88;11.80;;;11.60;99.90;;;;;;5043888;28;20037;-62
2024/03/21 00:59:23;;;;;;;17.40;11.90;;;11.50;99.90;;;;;;5046875;28;20088;-62
2024/03/21 01:01:50;;;;;;;19.45;12.20;;;11.70;99.90;;;;;;5036258;28;20376;-62
2024/03/21 01:04:17;;;;;;;21.45;13.82;;;11.70;99.90;;;;;;5045144;28;20583;-62
2024/03/21 01:06:43;;;;;;;21.50;12.90;;;11.50;99.90;;;;;;5044468;28;20049;-62
2024/03/21 01:09:11;;;;;;;26.23;14.30;;;11.50;99.90;;;;;;5046429;28;20040;-62
2024/03/21 01:11:37;;;;;;;20.10;15.13;;;11.70;99.90;;;;;;5044414;28;20799;-62
2024/03/21 01:14:03;;;;;;;21.50;14.68;;;11.70;99.90;;;;;;5046686;28;20435;-61
2024/03/21 01:16:29;;;;;;;19.65;12.73;;;11.50;99.90;;;;;;5045242;28;20033;-62
2024/03/21 01:18:55;;;;;;;20.45;14.05;;;11.50;99.90;;;;;;5045134;28;20067;-62
2024/03/21 01:21:21;;;;;;;26.63;14.32;;;11.50;99.90;;;;;;5046439;28;20500;-61
2024/03/21 01:23:47;;;;;;;20.65;15.02;;;11.40;99.90;;;;;;5045102;28;20056;-62
2024/03/21 01:26:13;;;;;;;22.42;14.23;;;11.60;99.90;;;;;;5041863;28;20477;-62
2024/03/21 01:28:39;;;;;;;20.45;13.30;;;11.40;99.90;;;;;;5053653;28;20036;-62
2024/03/21 01:31:14;;;;;;;22.38;15.45;;;11.60;99.90;;;;;;5042514;28;20128;-62
2024/03/21 01:33:41;;;;;;;21.75;15.10;;;11.50;99.90;;;;;;5040768;28;20519;-62
2024/03/21 01:36:08;;;;;;;21.73;14.60;;;11.40;99.90;;;;;;5041432;28;20036;-64
2024/03/21 01:38:34;;;;;;;27.95;16.35;;;11.50;99.90;;;;;;5042561;28;20055;-62
2024/03/21 01:41:01;;;;;;;25.83;16.35;;;11.60;99.90;;;;;;5039237;28;20044;-61
2024/03/21 01:43:27;;;;;;;23.73;16.05;;;11.50;99.90;;;;;;5037848;28;20142;-62
2024/03/21 01:46:14;;;;;;;24.48;17.15;;;11.30;99.90;;;;;;5037563;28;20056;-61
2024/03/21 01:48:42;;;;;;;27.25;16.00;;;11.40;99.90;;;;;;5039213;28;20049;-62
2024/03/21 01:51:08;;;;;;;24.20;16.13;;;11.30;99.90;;;;;;5041282;28;20091;-62
2024/03/21 01:53:35;;;;;;;25.23;17.05;;;11.40;99.90;;;;;;5041312;28;20047;-63
2024/03/21 01:56:01;;;;;;;23.38;15.43;;;11.30;99.90;;;;;;5039823;28;20041;-61
2024/03/21 01:58:27;;;;;;;20.73;14.10;;;11.40;99.90;;;;;;5039645;28;20034;-63
2024/03/21 02:00:54;;;;;;;18.85;13.18;;;11.30;99.90;;;;;;5042582;28;20044;-62
2024/03/21 02:03:20;;;;;;;19.30;10.75;;;11.20;99.90;;;;;;5042955;28;20141;-62
2024/03/21 02:05:46;;;;;;;21.23;12.73;;;11.10;99.90;;;;;;5043643;28;20032;-62
2024/03/21 02:08:12;;;;;;;14.88;10.68;;;11.10;99.90;;;;;;5038879;28;20089;-63
2024/03/21 02:10:38;;;;;;;14.10;10.05;;;11.20;99.90;;;;;;5040781;28;20036;-62
2024/03/21 02:13:05;;;;;;;9.23;6.53;;;11.10;99.90;;;;;;5049059;28;20047;-62
2024/03/21 02:15:31;;;;;;;8.05;6.03;;;11.00;99.90;;;;;;5041841;28;20079;-62
2024/03/21 02:17:58;;;;;;;9.10;6.70;;;10.80;99.90;;;;;;5042592;28;20123;-62
2024/03/21 02:20:24;;;;;;;9.93;7.53;;;10.80;99.90;;;;;;5040247;28;20526;-62
2024/03/21 02:22:50;;;;;;;7.03;6.13;;;10.80;99.90;;;;;;5041483;28;20028;-62
2024/03/21 02:25:16;;;;;;;9.77;6.70;;;10.70;99.90;;;;;;5046856;28;20037;-62
2024/03/21 02:27:42;;;;;;;11.15;8.27;;;10.70;99.90;;;;;;5041413;28;20056;-62
2024/03/21 02:30:10;;;;;;;10.57;9.35;;;10.50;99.90;;;;;;5045927;28;20067;-62
2024/03/21 02:32:37;;;;;;;13.60;10.27;;;10.30;99.90;;;;;;5042529;28;20120;-62
2024/03/21 02:35:04;;;;;;;13.90;10.63;;;10.30;99.90;;;;;;5041729;28;20091;-62
2024/03/21 02:37:30;;;;;;;16.35;11.48;;;10.20;99.90;;;;;;5032918;28;20245;-62
2024/03/21 02:39:56;;;;;;;18.98;13.73;;;10.10;99.90;;;;;;5040433;28;20032;-62
2024/03/21 02:42:22;;;;;;;17.63;13.27;;;10.20;99.90;;;;;;5037776;28;20454;-62
2024/03/21 02:44:49;;;;;;;24.80;16.52;;;10.10;99.90;;;;;;5037288;28;20048;-62
2024/03/21 02:47:16;;;;;;;22.25;15.52;;;9.90;99.90;;;;;;5041455;28;20076;-61
2024/03/21 02:49:42;;;;;;;21.10;15.55;;;9.90;99.90;;;;;;5038346;28;20167;-62
2024/03/21 02:52:08;;;;;;;21.65;15.82;;;9.90;99.90;;;;;;5040958;28;20041;-62
2024/03/21 02:54:35;;;;;;;27.13;17.17;;;9.80;99.90;;;;;;5030411;28;20033;-62
2024/03/21 02:57:04;;;;;;;23.98;17.17;;;9.80;99.90;;;;;;5037702;28;20040;-62
2024/03/21 02:59:33;;;;;;;18.85;13.75;;;9.80;99.90;;;;;;5044453;28;20105;-62
2024/03/21 03:01:59;;;;;;;25.50;13.23;;;9.70;99.90;;;;;;5037486;28;20388;-62
2024/03/21 03:04:25;;;;;;;15.10;11.00;;;9.60;99.90;;;;;;5041934;28;20036;-62
2024/03/21 03:06:50;;;;;;;19.83;10.93;;;9.50;99.90;;;;;;5043802;28;20048;-62
2024/03/21 03:09:16;;;;;;;15.93;11.18;;;9.50;99.90;;;;;;5040219;28;20138;-62
2024/03/21 03:11:42;;;;;;;21.23;11.38;;;9.50;99.90;;;;;;5035162;28;20040;-62
2024/03/21 03:14:08;;;;;;;21.95;11.15;;;9.40;99.90;;;;;;5042957;28;20045;-62
2024/03/21 03:16:34;;;;;;;22.73;10.02;;;9.40;99.90;;;;;;5038627;28;20120;-62
2024/03/21 03:19:01;;;;;;;22.70;10.82;;;9.50;99.90;;;;;;5043466;28;20198;-62
2024/03/21 03:21:27;;;;;;;20.83;11.30;;;9.40;99.90;;;;;;5037119;28;20069;-62
2024/03/21 03:23:53;;;;;;;18.95;10.05;;;9.30;99.90;;;;;;5037122;28;20184;-62
2024/03/21 03:26:18;;;;;;;13.57;9.40;;;9.20;99.90;;;;;;5031258;28;20149;-62
2024/03/21 03:28:44;;;;;;;20.23;10.52;;;9.00;99.90;;;;;;5037920;28;20123;-63
2024/03/21 03:31:10;;;;;;;24.48;11.95;;;9.00;99.90;;;;;;5034571;28;20052;-63
2024/03/21 03:36:21;;;;;;;28.25;11.93;;;9.10;99.90;;;;;;5038596;28;20547;-62
2024/03/21 03:38:46;;;;;;;21.63;9.75;;;9.10;99.90;;;;;;5033332;28;20050;-62
2024/03/21 03:41:12;;;;;;;24.10;9.80;;;9.10;99.90;;;;;;5043729;28;20041;-63
2024/03/21 03:43:38;;;;;;;20.95;8.57;;;9.10;99.90;;;;;;5045512;28;20037;-62
2024/03/21 03:46:04;;;;;;;15.10;7.15;;;9.00;99.90;;;;;;5039936;28;20044;-62
2024/03/21 03:48:30;;;;;;;18.80;7.72;;;8.90;99.90;;;;;;5041467;28;20148;-61
2024/03/21 03:50:55;;;;;;;20.85;7.40;;;8.90;99.90;;;;;;5041083;28;20045;-62
2024/03/21 03:53:21;;;;;;;20.42;6.28;;;8.90;99.90;;;;;;5042768;28;20037;-62
2024/03/21 03:55:47;;;;;;;16.63;7.05;;;8.90;99.90;;;;;;5043558;28;20116;-62
2024/03/21 03:58:13;;;;;;;18.85;6.85;;;8.90;99.90;;;;;;5035899;28;20060;-62
2024/03/21 04:00:38;;;;;;;13.07;5.97;;;8.70;99.90;;;;;;5040632;28;20499;-62
2024/03/21 04:03:04;;;;;;;16.88;6.22;;;8.70;99.90;;;;;;5041404;28;20033;-62
2024/03/21 04:05:30;;;;;;;16.58;6.38;;;8.70;99.90;;;;;;5043345;28;20408;-62
2024/03/21 04:07:56;;;;;;;13.93;4.95;;;8.60;99.90;;;;;;5034663;28;20048;-62
2024/03/21 04:10:21;;;;;;;11.10;4.72;;;8.70;99.90;;;;;;5034570;28;20040;-62
2024/03/21 04:12:47;;;;;;;17.77;5.57;;;8.70;99.90;;;;;;5041335;28;20089;-62
2024/03/21 04:15:13;;;;;;;15.48;5.03;;;8.60;99.90;;;;;;5037214;28;20072;-62
2024/03/21 04:17:39;;;;;;;16.42;5.18;;;8.60;99.90;;;;;;5040665;28;20037;-62
2024/03/21 04:20:06;;;;;;;13.85;4.22;;;8.60;99.90;;;;;;5038278;28;20467;-62
2024/03/21 04:22:35;;;;;;;10.93;4.22;;;8.60;99.90;;;;;;5042564;28;20269;-62
2024/03/21 04:25:03;;;;;;;11.85;4.65;;;8.50;99.90;;;;;;5043317;28;20041;-62
2024/03/21 04:27:30;;;;;;;13.20;3.95;;;8.50;99.90;;;;;;5041644;28;20124;-62
2024/03/21 04:29:55;;;;;;;12.30;3.40;;;8.50;99.90;;;;;;5039748;28;20048;-62
2024/03/21 04:32:21;;;;;;;8.07;3.50;;;8.50;99.90;;;;;;5046560;28;20051;-62
2024/03/21 04:34:47;;;;;;;9.88;2.65;;;8.50;99.90;;;;;;5047883;28;20191;-62
2024/03/21 04:37:17;;;;;;;13.70;3.40;;;8.50;99.90;;;;;;5036393;28;20404;-62
2024/03/21 04:39:47;;;;;;;24.58;5.30;;;8.50;99.90;;;;;;5039177;28;20041;-62
2024/03/21 04:42:16;;;;;;;12.35;3.72;;;8.60;99.90;;;;;;5053665;28;20043;-62
2024/03/21 04:44:45;;;;;;;21.55;4.32;;;8.50;99.90;;;;;;5036424;28;20048;-61
2024/03/21 04:47:11;;;;;;;18.17;3.20;;;8.60;99.90;;;;;;5033537;28;20419;-62
2024/03/21 04:49:37;;;;;;;10.07;3.05;;;8.60;99.90;;;;;;5050292;28;20065;-62
2024/03/21 04:52:04;;;;;;;12.35;2.80;;;8.50;99.90;;;;;;5042466;28;20103;-63
2024/03/21 04:54:29;;;;;;;10.52;2.78;;;8.50;99.90;;;;;;5041886;28;20051;-62
2024/03/21 04:56:58;;;;;;;11.35;2.78;;;8.50;99.90;;;;;;5038030;28;20045;-62
2024/03/21 04:59:28;;;;;;;8.43;2.53;;;8.50;99.90;;;;;;5045080;28;20871;-62
2024/03/21 05:01:57;;;;;;;5.90;1.95;;;8.50;99.90;;;;;;5042829;28;20048;-62
2024/03/21 05:04:23;;;;;;;7.68;2.78;;;8.60;99.90;;;;;;5042781;28;20037;-62
2024/03/21 05:06:51;;;;;;;10.07;2.28;;;8.60;99.90;;;;;;5033220;28;20063;-62
2024/03/21 05:09:17;;;;;;;6.40;1.92;;;8.60;99.90;;;;;;5041786;28;20594;-62
2024/03/21 05:11:42;;;;;;;6.22;2.60;;;8.60;99.90;;;;;;5042762;28;20159;-62
2024/03/21 05:14:08;;;;;;;6.35;2.63;;;8.60;99.90;;;;;;5039409;28;20064;-62
2024/03/21 05:16:34;;;;;;;8.18;2.42;;;8.70;99.90;;;;;;5042227;28;20073;-62
2024/03/21 05:19:00;;;;;;;7.95;2.70;;;8.70;99.90;;;;;;5040540;28;20128;-62
2024/03/21 05:21:26;;;;;;;6.53;2.70;;;8.70;99.90;;;;;;5035762;28;20539;-62
2024/03/21 05:23:52;;;;;;;8.77;2.50;;;8.70;99.90;;;;;;5038978;28;20148;-62
2024/03/21 05:26:17;;;;;;;8.60;2.53;;;8.80;99.90;;;;;;5045351;28;20041;-62
2024/03/21 05:28:43;;;;;;;7.53;2.50;;;8.80;99.90;;;;;;5039200;28;20547;-62
2024/03/21 05:31:35;;;;;;;8.32;2.53;;;8.80;99.90;;;;;;5040638;28;20144;-62
2024/03/21 05:34:02;;;;;;;8.65;3.22;;;8.80;99.90;;;;;;5038806;28;20130;-62
2024/03/21 05:36:29;;;;;;;10.35;2.65;;;8.80;99.90;;;;;;5038658;28;20087;-62
2024/03/21 05:38:56;;;;;;;10.25;2.72;;;8.80;99.90;;;;;;5043250;28;20094;-62
2024/03/21 05:41:21;;;;;;;8.95;2.13;;;8.80;99.90;;;;;;5040594;28;20094;-62
2024/03/21 05:43:47;;;;;;;8.15;2.47;;;8.90;99.90;;;;;;5044596;28;20037;-62
2024/03/21 05:46:13;;;;;;;11.23;2.78;;;8.90;99.90;;;;;;5039262;28;20118;-62
2024/03/21 05:48:39;;;;;;;11.52;2.67;;;8.90;99.90;;;;;;5042943;28;20047;-62
2024/03/21 05:51:05;;;;;;;12.63;3.20;;;8.90;99.90;;;;;;5036780;28;20056;-62
2024/03/21 05:53:31;;;;;;;19.08;3.65;;;8.90;99.90;;;;;;5040829;28;20099;-62
2024/03/21 05:56:01;;;;;;;13.77;3.60;;;8.80;99.90;;;;;;5040682;28;20051;-62
2024/03/21 05:58:27;;;;;;;10.65;3.00;;;8.90;99.90;;;;;;5041318;28;20122;-62
2024/03/21 06:03:32;;;;;;;10.57;3.05;;;8.90;99.90;;;;;;5036033;28;20041;-62
2024/03/21 06:05:59;;;;;;;8.18;2.65;;;8.80;99.90;;;;;;5041200;28;20534;-62
2024/03/21 06:08:25;;;;;;;11.45;3.33;;;8.80;99.90;;;;;;5046868;28;20119;-62
2024/03/21 06:10:50;;;;;;;11.23;3.78;;;8.80;99.90;;;;;;5041137;28;20047;-62
2024/03/21 06:13:17;;;;;;;11.38;4.15;;;8.80;99.90;;;;;;5040062;28;20044;-62
2024/03/21 06:15:43;;;;;;;17.50;5.57;;;8.70;99.90;;;;;;5038918;28;20670;-62
2024/03/21 06:18:08;;;;;;;14.48;4.05;;;8.70;99.90;;;;;;5040813;28;20070;-62
2024/03/21 06:20:34;;;;;;;14.35;3.75;;;8.70;99.90;;;;;;5038213;28;20043;-62
2024/03/21 06:23:00;;;;;;;11.32;4.28;;;8.60;99.90;;;;;;5036376;28;20037;-62
2024/03/21 06:25:26;;;;;;;11.00;3.30;;;8.60;99.90;;;;;;5037998;28;20037;-62
2024/03/21 06:27:52;;;;;;;16.42;3.53;;;8.60;99.90;;;;;;5040731;28;20048;-62
2024/03/21 06:30:18;;;;;;;12.82;3.00;;;8.50;99.90;;;;;;5040384;28;20561;-62
2024/03/21 06:32:44;;;;;;;10.40;3.33;;;8.60;99.90;;;;;;5034760;28;20033;-62
2024/03/21 06:35:13;;;;;;;10.18;2.58;;;8.50;99.90;;;;;;5036459;28;20637;-62
2024/03/21 06:37:39;;;;;;;12.77;2.95;;;8.60;99.90;;;;;;5036872;28;20072;-62
2024/03/21 06:40:06;;;;;;;10.05;2.72;;;8.60;99.90;;;;;;5037742;28;20116;-62
2024/03/21 06:42:32;;;;;;;6.20;2.83;;;8.70;99.90;;;;;;5038296;28;20104;-62
2024/03/21 06:44:58;;;;;;;11.13;3.20;;;8.60;99.90;;;;;;5034872;28;20173;-62
2024/03/21 06:47:24;;;;;;;14.13;3.22;;;8.60;99.90;;;;;;5037408;28;20075;-62
2024/03/21 06:49:53;;;;;;;17.05;3.58;;;8.60;99.90;;;;;;5035263;28;20041;-62
2024/03/21 06:52:19;;;;;;;16.20;3.10;;;8.60;99.90;;;;;;5038223;28;20037;-62
2024/03/21 06:54:45;;;;;;;8.10;2.72;;;8.60;99.90;;;;;;5036203;28;20048;-61
2024/03/21 06:57:11;;;;;;;11.68;2.70;;;8.60;99.90;;;;;;5035677;28;20049;-62
2024/03/21 06:59:37;;;;;;;9.18;2.50;;;8.60;99.90;;;;;;5037459;28;20045;-62
2024/03/21 07:02:05;;;;;;;10.70;2.40;;;8.60;99.90;;;;;;5034359;28;20045;-62
2024/03/21 07:04:30;;;;;;;6.97;2.20;;;8.60;99.90;;;;;;5036826;28;20091;-62
2024/03/21 07:06:56;;;;;;;7.47;2.22;;;8.70;99.90;;;;;;5039105;28;20049;-62
2024/03/21 07:09:23;;;;;;;9.18;2.67;;;8.80;99.90;;;;;;5040595;28;20041;-62
2024/03/21 07:11:49;;;;;;;7.13;2.03;;;8.70;99.90;;;;;;5041767;28;20087;-62
2024/03/21 07:14:14;;;;;;;12.75;2.38;;;8.70;99.90;;;;;;5040219;28;20037;-62
2024/03/21 07:16:40;;;;;;;12.07;2.28;;;8.70;99.90;;;;;;5037653;28;20311;-62
2024/03/21 07:19:06;;;;;;;9.73;2.15;;;8.70;99.90;;;;;;5041108;28;20818;-62
2024/03/21 07:21:32;;;;;;;10.63;2.17;;;8.70;99.90;;;;;;5039174;28;20400;-62
2024/03/21 07:23:57;;;;;;;11.40;2.00;;;8.80;99.90;;;;;;5042096;28;20440;-62
2024/03/21 07:26:23;;;;;;;14.40;2.47;;;8.70;99.90;;;;;;5037826;28;20051;-62
2024/03/21 07:28:49;;;;;;;10.30;2.10;;;8.70;99.90;;;;;;5039843;28;20064;-62
2024/03/21 07:31:15;;;;;;;14.07;3.17;;;8.80;99.90;;;;;;5039449;28;20052;-62
2024/03/21 07:33:41;;;;;;;12.13;2.30;;;8.80;99.90;;;;;;5041366;28;20511;-62
2024/03/21 07:36:07;;;;;;;9.13;2.42;;;8.80;99.90;;;;;;5037638;28;20190;-62
2024/03/21 07:38:33;;;;;;;7.10;2.47;;;8.80;99.90;;;;;;5040484;28;20403;-61
2024/03/21 07:41:00;;;;;;;13.05;2.03;;;8.90;99.90;;;;;;5040672;28;20055;-62
2024/03/21 07:43:26;;;;;;;11.80;2.42;;;8.90;99.90;;;;;;5040000;28;20103;-62
2024/03/21 07:45:52;;;;;;;16.92;2.75;;;8.90;99.90;;;;;;5040813;28;20144;-62
2024/03/21 07:48:19;;;;;;;8.18;2.28;;;8.90;99.90;;;;;;5040216;28;20040;-62
2024/03/21 07:50:44;;;;;;;10.70;2.80;;;8.90;99.90;;;;;;5038866;28;20044;-64
2024/03/21 07:53:11;;;;;;;12.60;3.38;;;8.90;99.90;;;;;;5040386;28;21086;-62
2024/03/21 07:55:37;;;;;;;16.08;2.60;;;9.00;99.90;;;;;;5041776;28;20094;-62
2024/03/21 07:58:05;;;;;;;12.80;2.80;;;9.00;99.90;;;;;;5038385;28;20491;-62
2024/03/21 08:00:31;;;;;;;12.48;2.88;;;9.10;99.90;;;;;;5041032;28;20591;-62
2024/03/21 08:02:57;;;;;;;8.93;2.00;;;9.10;99.90;;;;;;5040305;28;20037;-62
2024/03/21 08:05:23;;;;;;;11.98;2.85;;;9.10;99.90;;;;;;5037232;28;20052;-62
2024/03/21 08:07:49;;;;;;;14.13;3.00;;;9.10;99.90;;;;;;5038835;28;20037;-62
2024/03/21 08:10:15;;;;;;;15.20;4.10;;;9.20;99.90;;;;;;5039500;28;20398;-62
2024/03/21 08:12:41;;;;;;;10.18;3.20;;;9.20;99.90;;;;;;5039153;28;20379;-62
2024/03/21 08:15:08;;;;;;;10.20;2.67;;;9.20;99.90;;;;;;5038396;28;20716;-62
2024/03/21 08:17:34;;;;;;;13.50;3.42;;;9.30;99.90;;;;;;5037811;28;20064;-62
2024/03/21 08:20:00;;;;;;;14.27;3.25;;;9.40;99.90;;;;;;5036128;28;20120;-62
2024/03/21 08:22:26;;;;;;;12.07;3.20;;;9.30;99.90;;;;;;5040470;28;20409;-62
2024/03/21 08:24:53;;;;;;;15.52;3.08;;;9.40;99.90;;;;;;5039879;28;20033;-62
2024/03/21 08:27:19;;;;;;;14.05;2.78;;;9.30;99.90;;;;;;5039131;28;20037;-62
2024/03/21 08:29:50;;;;;;;13.27;2.97;;;9.40;99.90;;;;;;5040254;28;20041;-62
2024/03/21 08:32:21;;;;;;;12.48;2.90;;;9.40;99.90;;;;;;5040596;28;20052;-62
2024/03/21 08:34:47;;;;;;;8.82;2.30;;;9.50;99.90;;;;;;5040731;28;20926;-63
2024/03/21 08:37:14;;;;;;;10.18;2.78;;;9.50;99.90;;;;;;5038042;28;20049;-62
2024/03/21 08:39:40;;;;;;;11.30;2.30;;;9.40;99.90;;;;;;5041075;28;20424;-62
2024/03/21 08:42:06;;;;;;;12.27;2.55;;;9.50;99.90;;;;;;5040440;28;20079;-62
2024/03/21 08:44:33;;;;;;;15.68;2.65;;;9.50;99.90;;;;;;5041244;28;20176;-62
2024/03/21 08:46:59;;;;;;;9.88;2.72;;;9.70;99.90;;;;;;5041013;28;20497;-62
2024/03/21 08:49:24;;;;;;;11.95;3.13;;;9.70;99.90;;;;;;5037185;28;20049;-62
2024/03/21 08:51:50;;;;;;;9.73;2.95;;;9.70;99.90;;;;;;5040103;28;20041;-62
2024/03/21 08:54:16;;;;;;;10.65;2.63;;;9.60;99.90;;;;;;5039191;28;20036;-62
2024/03/21 08:56:42;;;;;;;8.90;2.20;;;9.70;99.90;;;;;;5039830;28;20043;-62
2024/03/21 08:59:08;;;;;;;8.70;2.08;;;9.60;99.90;;;;;;5040568;28;20041;-62
2024/03/21 09:01:34;;;;;;;9.63;2.58;;;9.60;99.90;;;;;;5039990;28;20597;-62
2024/03/21 09:04:00;;;;;;;8.02;2.85;;;9.60;99.90;;;;;;5040344;28;20132;-62
2024/03/21 09:06:27;;;;;;;10.52;2.42;;;9.50;99.90;;;;;;5038612;28;20045;-63
2024/03/21 09:08:52;;;;;;;11.88;2.95;;;9.50;99.90;;;;;;5040114;28;20052;-63
2024/03/21 09:11:18;;;;;;;12.40;2.80;;;9.60;99.90;;;;;;5039118;28;20072;-63
2024/03/21 09:13:44;;;;;;;16.90;3.03;;;9.60;99.90;;;;;;5040116;28;20068;-63
2024/03/21 09:16:10;;;;;;;14.00;3.03;;;9.60;99.90;;;;;;5035730;28;20103;-63
2024/03/21 09:18:36;;;;;;;11.70;2.65;;;9.70;99.90;;;;;;5039821;28;20033;-63
2024/03/21 09:21:03;;;;;;;10.68;2.88;;;9.70;99.90;;;;;;5040986;28;20048;-63
2024/03/21 09:23:31;;;;;;;7.18;2.60;;;9.80;99.90;;;;;;5039637;28;20036;-63
2024/03/21 09:26:00;;;;;;;10.05;2.88;;;9.80;99.90;;;;;;5039071;28;20894;-62
2024/03/21 09:28:25;;;;;;;4.88;2.20;;;9.80;99.90;;;;;;5023686;28;20040;-63
2024/03/21 09:30:51;;;;;;;11.00;2.78;;;9.90;99.90;;;;;;5038370;28;20048;-62
2024/03/21 09:33:17;;;;;;;14.27;2.90;;;9.80;99.90;;;;;;5036775;28;20561;-63
2024/03/21 09:35:43;;;;;;;8.40;2.90;;;9.70;99.90;;;;;;5037061;28;20118;-62
2024/03/21 09:38:09;;;;;;;4.78;2.60;;;9.80;99.90;;;;;;5038965;28;20052;-63
2024/03/21 09:40:36;;;;;;;8.20;3.05;;;9.80;99.90;;;;;;5036868;28;20033;-62
2024/03/21 09:43:06;;;;;;;9.98;2.83;;;9.80;99.90;;;;;;5039295;28;20044;-63
2024/03/21 09:45:33;;;;;;;7.68;2.63;;;9.80;99.90;;;;;;5038853;28;20045;-62
2024/03/21 09:47:59;;;;;;;8.35;2.67;;;9.80;99.90;;;;;;5041001;28;20036;-62
2024/03/21 09:50:25;;;;;;;7.97;3.38;;;9.90;99.90;;;;;;5037162;28;20044;-63
2024/03/21 09:52:52;;;;;;;12.82;3.17;;;9.90;99.90;;;;;;5040098;28;20040;-62
2024/03/21 09:55:20;;;;;;;11.00;2.92;;;10.00;99.90;;;;;;5037836;28;20508;-64
2024/03/21 09:57:45;;;;;;;10.82;3.13;;;10.00;99.90;;;;;;5039507;28;20040;-62
2024/03/21 10:00:14;;;;;;;11.55;3.33;;;10.00;99.90;;;;;;5038812;28;20037;-63
2024/03/21 10:02:40;;;;;;;10.27;3.35;;;10.10;99.90;;;;;;5038001;28;20044;-62
2024/03/21 10:05:08;;;;;;;9.85;3.10;;;10.10;99.90;;;;;;5039928;28;20045;-62
2024/03/21 10:07:38;;;;;;;10.50;3.40;;;10.00;99.90;;;;;;5036353;28;20041;-63
2024/03/21 10:10:05;;;;;;;8.70;2.80;;;10.00;99.90;;;;;;5037012;28;20037;-62
2024/03/21 10:12:31;;;;;;;8.52;3.30;;;10.00;99.90;;;;;;5039027;28;20597;-63
2024/03/21 10:14:57;;;;;;;10.15;2.83;;;10.00;99.90;;;;;;5039694;28;20063;-62
2024/03/21 10:17:25;;;;;;;8.50;3.30;;;10.00;99.90;;;;;;5037177;28;20049;-64
2024/03/21 10:19:51;;;;;;;12.85;3.13;;;10.10;99.90;;;;;;5039025;28;20048;-63
2024/03/21 10:22:19;;;;;;;11.98;3.40;;;10.00;99.90;;;;;;5039513;28;20139;-64
2024/03/21 10:24:54;;;;;;;16.00;3.67;;;10.10;99.90;;;;;;5036243;28;20047;-62
2024/03/21 10:27:22;;;;;;;12.05;3.08;;;10.20;99.90;;;;;;5039913;28;20041;-63
2024/03/21 10:29:49;;;;;;;13.32;3.95;;;10.30;99.90;;;;;;5038303;28;20472;-62
2024/03/21 10:32:21;;;;;;;10.32;3.78;;;10.30;99.90;;;;;;5038663;28;20758;-61
2024/03/21 10:34:49;;;;;;;13.05;4.13;;;10.30;99.90;;;;;;5037675;28;21166;-62
2024/03/21 10:37:19;;;;;;;8.85;3.55;;;10.40;99.90;;;;;;5035385;28;20609;-62
2024/03/21 10:39:46;;;;;;;16.90;3.78;;;10.30;99.90;;;;;;5040205;28;20032;-62
2024/03/21 10:42:33;;;;;;;11.68;3.72;;;10.30;99.90;;;;;;5037586;28;20042;-64
2024/03/21 10:45:06;;;;;;;8.82;3.47;;;10.10;99.90;;;;;;5037917;28;20076;-62
2024/03/21 10:47:32;;;;;;;7.55;2.90;;;10.10;99.90;;;;;;5035184;28;20045;-62
2024/03/21 10:49:58;;;;;;;13.45;3.05;;;10.10;99.90;;;;;;5037742;28;20069;-62
2024/03/21 10:52:24;;;;;;;6.60;2.78;;;10.10;99.90;;;;;;5036618;28;20056;-62
2024/03/21 10:54:52;;;;;;;13.40;3.42;;;10.10;99.90;;;;;;5038945;28;20041;-61
2024/03/21 10:57:19;;;;;;;9.32;3.25;;;10.20;99.90;;;;;;5032915;28;20041;-62
2024/03/21 11:00:14;;;;;;;13.30;3.70;;;10.10;99.90;;;;;;5034133;28;20045;-62
2024/03/21 11:02:44;;;;;;;12.73;4.05;;;10.10;99.90;;;;;;5034464;28;20044;-62
2024/03/21 11:05:15;;;;;;;10.57;4.20;;;10.00;99.90;;;;;;5052195;28;20401;-62
2024/03/21 11:07:42;;;;;;;12.43;3.95;;;9.90;99.90;;;;;;5035286;28;20041;-62
2024/03/21 11:10:15;;;;;;;7.90;3.25;;;9.90;99.90;;;;;;5038909;28;20558;-62
2024/03/21 11:12:41;;;;;;;10.23;3.83;;;10.00;99.90;;;;;;5035840;28;20048;-62
2024/03/21 11:15:07;;;;;;;7.82;4.25;;;9.90;99.90;;;;;;5036796;28;20411;-61
2024/03/21 11:17:34;;;;;;;10.95;3.92;;;9.90;99.90;;;;;;5035015;28;20044;-61
2024/03/21 11:20:05;;;;;;;14.32;4.03;;;9.90;99.90;;;;;;5037874;28;20551;-61
2024/03/21 11:22:31;;;;;;;10.48;3.75;;;9.90;99.90;;;;;;5036976;28;20047;-62
2024/03/21 11:24:57;;;;;;;10.75;3.55;;;9.80;99.90;;;;;;5038985;28;20136;-62
2024/03/21 11:27:25;;;;;;;11.93;3.90;;;9.90;99.90;;;;;;5035635;28;20045;-62
2024/03/21 11:29:51;;;;;;;16.00;3.53;;;9.90;99.90;;;;;;5036482;28;20041;-61
2024/03/21 11:32:22;;;;;;;13.75;3.58;;;9.90;99.90;;;;;;5037317;28;20500;-62
2024/03/21 11:34:48;;;;;;;11.43;3.65;;;9.90;99.90;;;;;;5035946;28;20106;-61
2024/03/21 11:37:15;;;;;;;13.23;4.00;;;9.80;99.90;;;;;;5038461;28;20448;-62
2024/03/21 11:39:41;;;;;;;7.90;3.70;;;9.80;99.90;;;;;;5035711;28;20036;-62
2024/03/21 11:42:11;;;;;;;8.77;3.90;;;9.90;99.90;;;;;;5037301;28;20048;-62
2024/03/21 11:44:42;;;;;;;8.38;3.10;;;9.90;99.90;;;;;;5036303;28;20041;-62
2024/03/21 11:47:12;;;;;;;10.73;3.78;;;10.00;99.90;;;;;;5035387;28;20802;-62
2024/03/21 11:49:38;;;;;;;6.10;3.00;;;10.00;99.90;;;;;;5036701;28;20068;-62
2024/03/21 11:52:07;;;;;;;10.63;2.60;;;9.90;99.90;;;;;;5036567;28;20040;-61
2024/03/21 11:54:33;;;;;;;8.68;3.10;;;9.90;99.90;;;;;;5037913;28;20057;-62
2024/03/21 11:56:59;;;;;;;10.35;3.03;;;10.00;99.90;;;;;;5039707;28;20132;-62
2024/03/21 11:59:30;;;;;;;7.97;2.95;;;10.00;99.90;;;;;;5034560;28;20243;-62
2024/03/21 12:01:59;;;;;;;8.75;3.25;;;10.00;99.90;;;;;;5037912;28;20110;-62
2024/03/21 12:04:26;;;;;;;;;;;10.00;99.90;;;;;;5040124;28;20116;-62
2024/03/21 12:06:51;;;;;;;8.13;3.03;;;9.90;99.90;;;;;;5040863;28;20433;-62
2024/03/21 12:09:17;;;;;;;7.90;3.55;;;9.90;99.90;;;;;;5040735;28;20045;-62
2024/03/21 12:11:44;;;;;;;11.15;3.78;;;9.90;99.90;;;;;;5040791;28;20155;-62
2024/03/21 12:14:10;;;;;;;16.80;5.03;;;9.90;99.90;;;;;;5033893;28;20697;-61
2024/03/21 12:16:35;;;;;;;12.63;4.30;;;9.80;99.90;;;;;;5033139;28;20245;-62
2024/03/21 12:19:01;;;;;;;10.88;4.53;;;9.90;99.90;;;;;;5034256;28;20037;-62
2024/03/21 12:21:27;;;;;;;12.85;4.65;;;9.90;99.90;;;;;;5038486;28;20047;-62
2024/03/21 12:23:53;;;;;;;13.02;4.72;;;9.90;99.90;;;;;;5040302;28;20440;-63
2024/03/21 12:26:18;;;;;;;10.35;4.28;;;9.90;99.90;;;;;;5037158;28;20049;-62
2024/03/21 12:28:45;;;;;;;9.27;3.78;;;9.90;99.90;;;;;;5022819;28;20040;-63
2024/03/21 12:31:18;;;;;;;9.48;3.70;;;9.90;99.90;;;;;;5039401;28;20040;-62
2024/03/21 12:33:44;;;;;;;5.95;2.75;;;9.90;99.90;;;;;;5038666;28;20496;-65
2024/03/21 12:36:11;;;;;;;9.73;3.75;;;9.90;99.90;;;;;;5038966;28;20500;-62
2024/03/21 12:38:38;;;;;;;8.15;3.80;;;10.00;99.90;;;;;;5041000;28;20079;-61
2024/03/21 12:41:05;;;;;;;8.00;3.42;;;10.00;99.90;;;;;;5041177;28;20045;-61
2024/03/21 12:43:31;;;;;;;11.85;4.03;;;10.00;99.90;;;;;;5041633;28;20106;-61
2024/03/21 12:45:58;;;;;;;10.02;4.20;;;10.00;99.90;;;;;;5037592;28;20040;-61